sensor_id;sensor_type;location;lat;lon;timestamp;pressure;altitude;pressure_sealevel;temperature;humidity
20696;BME280;10507;52.754;13.040;2024-03-17T00:00:05;101373.94;;;3.64;92.94
20696;BME280;10507;52.754;13.040;2024-03-17T00:02:36;101382.81;;;3.57;93.02
20696;BME280;10507;52.754;13.040;2024-03-17T00:05:02;101390.66;;;3.65;93.45
20696;BME280;10507;52.754;13.040;2024-03-17T00:07:31;101383.66;;;3.64;93.50
20696;BME280;10507;52.754;13.040;2024-03-17T00:09:57;101382.81;;;3.57;93.27
20696;BME280;10507;52.754;13.040;2024-03-17T00:12:26;101382.88;;;3.51;93.25
20696;BME280;10507;52.754;13.040;2024-03-17T00:14:52;101399.63;;;3.47;93.87
20696;BME280;10507;52.754;13.040;2024-03-17T00:17:19;101401.41;;;3.46;93.71
20696;BME280;10507;52.754;13.040;2024-03-17T00:19:46;101403.16;;;3.44;94.17
20696;BME280;10507;52.754;13.040;2024-03-17T00:22:13;101410.22;;;3.42;94.54
20696;BME280;10507;52.754;13.040;2024-03-17T00:24:44;101413.78;;;3.41;94.33
20696;BME280;10507;52.754;13.040;2024-03-17T00:27:11;101405.84;;;3.38;94.60
20696;BME280;10507;52.754;13.040;2024-03-17T00:29:37;101416.38;;;3.43;94.65
20696;BME280;10507;52.754;13.040;2024-03-17T00:32:04;101422.50;;;3.46;94.30
20696;BME280;10507;52.754;13.040;2024-03-17T00:34:30;101415.50;;;3.41;94.72
20696;BME280;10507;52.754;13.040;2024-03-17T00:36:57;101418.16;;;3.42;94.62
20696;BME280;10507;52.754;13.040;2024-03-17T00:39:22;101426.09;;;3.39;94.63
20696;BME280;10507;52.754;13.040;2024-03-17T00:41:53;101433.97;;;3.41;94.98
20696;BME280;10507;52.754;13.040;2024-03-17T00:44:19;101419.09;;;3.33;94.62
20696;BME280;10507;52.754;13.040;2024-03-17T00:46:47;101424.44;;;3.26;94.52
20696;BME280;10507;52.754;13.040;2024-03-17T00:49:15;101434.13;;;3.25;94.89
20696;BME280;10507;52.754;13.040;2024-03-17T00:51:42;101455.19;;;3.30;94.85
20696;BME280;10507;52.754;13.040;2024-03-17T00:54:08;101452.56;;;3.30;95.00
20696;BME280;10507;52.754;13.040;2024-03-17T00:56:35;101449.94;;;3.27;95.11
20696;BME280;10507;52.754;13.040;2024-03-17T00:59:05;101455.25;;;3.22;95.25
20696;BME280;10507;52.754;13.040;2024-03-17T01:01:32;101449.13;;;3.19;95.18
20696;BME280;10507;52.754;13.040;2024-03-17T01:03:58;101461.41;;;3.21;95.33
20696;BME280;10507;52.754;13.040;2024-03-17T01:06:25;101460.56;;;3.19;95.75
20696;BME280;10507;52.754;13.040;2024-03-17T01:08:51;101466.69;;;3.18;95.97
20696;BME280;10507;52.754;13.040;2024-03-17T01:11:18;101472.84;;;3.20;96.42
20696;BME280;10507;52.754;13.040;2024-03-17T01:13:44;101472.88;;;3.17;96.29
20696;BME280;10507;52.754;13.040;2024-03-17T01:16:14;101471.09;;;3.16;96.21
20696;BME280;10507;52.754;13.040;2024-03-17T01:18:40;101467.59;;;3.17;96.55
20696;BME280;10507;52.754;13.040;2024-03-17T01:21:08;101471.06;;;3.22;96.86
20696;BME280;10507;52.754;13.040;2024-03-17T01:23:34;101472.84;;;3.22;96.16
20696;BME280;10507;52.754;13.040;2024-03-17T01:26:02;101457.91;;;3.21;96.25
20696;BME280;10507;52.754;13.040;2024-03-17T01:28:28;101471.94;;;3.24;96.58
20696;BME280;10507;52.754;13.040;2024-03-17T01:30:59;101469.28;;;3.32;96.26
20696;BME280;10507;52.754;13.040;2024-03-17T01:33:27;101471.84;;;3.38;97.01
20696;BME280;10507;52.754;13.040;2024-03-17T01:35:55;101462.16;;;3.42;96.16
20696;BME280;10507;52.754;13.040;2024-03-17T01:38:22;101445.44;;;3.38;96.16
20696;BME280;10507;52.754;13.040;2024-03-17T01:40:49;101456.91;;;3.39;96.17
20696;BME280;10507;52.754;13.040;2024-03-17T01:43:15;101462.16;;;3.42;96.33
20696;BME280;10507;52.754;13.040;2024-03-17T01:45:42;101453.41;;;3.37;96.26
20696;BME280;10507;52.754;13.040;2024-03-17T01:48:13;101456.03;;;3.35;96.19
20696;BME280;10507;52.754;13.040;2024-03-17T01:50:42;101444.63;;;3.31;95.83
20696;BME280;10507;52.754;13.040;2024-03-17T01:53:12;101451.66;;;3.29;95.84
20696;BME280;10507;52.754;13.040;2024-03-17T01:55:43;101458.72;;;3.29;96.38
20696;BME280;10507;52.754;13.040;2024-03-17T01:58:09;101461.38;;;3.24;96.37
20696;BME280;10507;52.754;13.040;2024-03-17T02:00:39;101466.66;;;3.23;96.91
20696;BME280;10507;52.754;13.040;2024-03-17T02:03:05;101469.31;;;3.27;96.70
20696;BME280;10507;52.754;13.040;2024-03-17T02:05:34;101465.72;;;3.31;96.65
20696;BME280;10507;52.754;13.040;2024-03-17T02:08:01;101483.31;;;3.36;96.77
20696;BME280;10507;52.754;13.040;2024-03-17T02:10:28;101472.75;;;3.34;97.39
20696;BME280;10507;52.754;13.040;2024-03-17T02:12:54;101472.78;;;3.29;97.04
20696;BME280;10507;52.754;13.040;2024-03-17T02:15:21;101483.34;;;3.29;96.96
20696;BME280;10507;52.754;13.040;2024-03-17T02:17:48;101479.84;;;3.26;97.32
20696;BME280;10507;52.754;13.040;2024-03-17T02:20:15;101493.91;;;3.26;97.24
20696;BME280;10507;52.754;13.040;2024-03-17T02:22:44;101501.84;;;3.28;98.04
20696;BME280;10507;52.754;13.040;2024-03-17T02:25:10;101509.75;;;3.28;97.88
20696;BME280;10507;52.754;13.040;2024-03-17T02:27:37;101506.22;;;3.29;98.38
20696;BME280;10507;52.754;13.040;2024-03-17T02:30:04;101505.34;;;3.27;98.08
20696;BME280;10507;52.754;13.040;2024-03-17T02:32:32;101525.56;;;3.31;98.54
20696;BME280;10507;52.754;13.040;2024-03-17T02:34:59;101512.38;;;3.32;97.99
20696;BME280;10507;52.754;13.040;2024-03-17T02:37:25;101514.09;;;3.35;98.93
20696;BME280;10507;52.754;13.040;2024-03-17T02:39:53;101514.09;;;3.35;98.29
20696;BME280;10507;52.754;13.040;2024-03-17T02:42:21;101503.56;;;3.29;98.13
20696;BME280;10507;52.754;13.040;2024-03-17T02:44:46;101508.88;;;3.24;98.16
20696;BME280;10507;52.754;13.040;2024-03-17T02:47:14;101498.34;;;3.18;97.94
20696;BME280;10507;52.754;13.040;2024-03-17T02:49:41;101502.81;;;3.10;98.62
20696;BME280;10507;52.754;13.040;2024-03-17T02:52:10;101506.34;;;3.06;98.52
20696;BME280;10507;52.754;13.040;2024-03-17T02:54:43;101512.53;;;3.03;98.39
20696;BME280;10507;52.754;13.040;2024-03-17T02:57:13;101503.75;;;3.00;98.71
20696;BME280;10507;52.754;13.040;2024-03-17T02:59:40;101511.69;;;2.97;98.82
20696;BME280;10507;52.754;13.040;2024-03-17T03:02:07;101502.94;;;2.91;98.94
20696;BME280;10507;52.754;13.040;2024-03-17T03:04:34;101514.31;;;2.95;99.46
20696;BME280;10507;52.754;13.040;2024-03-17T03:07:01;101520.47;;;2.99;99.10
20696;BME280;10507;52.754;13.040;2024-03-17T03:09:28;101527.47;;;3.06;99.89
20696;BME280;10507;52.754;13.040;2024-03-17T03:11:57;101516.00;;;3.10;99.53
20696;BME280;10507;52.754;13.040;2024-03-17T03:14:26;101522.13;;;3.13;99.19
20696;BME280;10507;52.754;13.040;2024-03-17T03:16:53;101513.34;;;3.13;98.80
20696;BME280;10507;52.754;13.040;2024-03-17T03:19:20;101514.25;;;3.12;99.12
20696;BME280;10507;52.754;13.040;2024-03-17T03:21:46;101509.88;;;3.08;99.20
20696;BME280;10507;52.754;13.040;2024-03-17T03:24:14;101506.38;;;3.01;98.58
20696;BME280;10507;52.754;13.040;2024-03-17T03:26:41;101496.78;;;2.89;98.85
20696;BME280;10507;52.754;13.040;2024-03-17T03:29:08;101511.69;;;2.90;98.77
20696;BME280;10507;52.754;13.040;2024-03-17T03:31:37;101524.88;;;2.95;99.21
20696;BME280;10507;52.754;13.040;2024-03-17T03:34:04;101520.47;;;2.99;99.43
20696;BME280;10507;52.754;13.040;2024-03-17T03:36:34;101532.75;;;3.07;99.28
20696;BME280;10507;52.754;13.040;2024-03-17T03:39:01;101538.84;;;3.16;99.76
20696;BME280;10507;52.754;13.040;2024-03-17T03:41:30;101536.16;;;3.23;99.86
20696;BME280;10507;52.754;13.040;2024-03-17T03:43:57;101542.28;;;3.30;99.42
20696;BME280;10507;52.754;13.040;2024-03-17T03:46:24;101528.22;;;3.28;99.93
20696;BME280;10507;52.754;13.040;2024-03-17T03:48:52;101533.47;;;3.31;99.88
20696;BME280;10507;52.754;13.040;2024-03-17T03:51:19;101530.84;;;3.29;99.57
20696;BME280;10507;52.754;13.040;2024-03-17T03:53:48;101541.38;;;3.36;100.00
20696;BME280;10507;52.754;13.040;2024-03-17T03:56:17;101546.59;;;3.45;99.99
20696;BME280;10507;52.754;13.040;2024-03-17T03:58:43;101533.44;;;3.39;99.59
20696;BME280;10507;52.754;13.040;2024-03-17T04:01:12;101532.50;;;3.43;99.63
20696;BME280;10507;52.754;13.040;2024-03-17T04:03:41;101520.28;;;3.29;99.67
20696;BME280;10507;52.754;13.040;2024-03-17T04:06:10;101528.22;;;3.26;99.56
20696;BME280;10507;52.754;13.040;2024-03-17T04:08:38;101535.34;;;3.17;99.39
20696;BME280;10507;52.754;13.040;2024-03-17T04:11:06;101536.22;;;3.12;99.25
20696;BME280;10507;52.754;13.040;2024-03-17T04:13:33;101537.13;;;3.07;99.97
20696;BME280;10507;52.754;13.040;2024-03-17T04:16:05;101539.78;;;2.98;99.94
20696;BME280;10507;52.754;13.040;2024-03-17T04:18:36;101556.50;;;2.98;100.00
20696;BME280;10507;52.754;13.040;2024-03-17T04:21:05;101546.84;;;2.99;100.00
20696;BME280;10507;52.754;13.040;2024-03-17T04:23:34;101557.38;;;2.96;100.00
20696;BME280;10507;52.754;13.040;2024-03-17T04:26:01;101548.66;;;2.87;100.00
20696;BME280;10507;52.754;13.040;2024-03-17T04:28:29;101552.16;;;2.80;100.00
20696;BME280;10507;52.754;13.040;2024-03-17T04:31:03;101567.13;;;2.83;100.00
20696;BME280;10507;52.754;13.040;2024-03-17T04:33:31;101561.00;;;2.76;100.00
20696;BME280;10507;52.754;13.040;2024-03-17T04:35:58;101554.84;;;2.71;100.00
20696;BME280;10507;52.754;13.040;2024-03-17T04:38:25;101562.75;;;2.66;100.00
20696;BME280;10507;52.754;13.040;2024-03-17T04:40:53;101563.69;;;2.56;100.00
20696;BME280;10507;52.754;13.040;2024-03-17T04:43:29;101568.09;;;2.48;100.00
20696;BME280;10507;52.754;13.040;2024-03-17T04:46:00;101571.63;;;2.36;100.00
20696;BME280;10507;52.754;13.040;2024-03-17T04:48:29;101583.91;;;2.28;100.00
20696;BME280;10507;52.754;13.040;2024-03-17T04:50:56;101597.09;;;2.28;100.00
20696;BME280;10507;52.754;13.040;2024-03-17T04:53:22;101587.44;;;2.21;100.00
20696;BME280;10507;52.754;13.040;2024-03-17T04:55:59;101598.00;;;2.18;100.00
20696;BME280;10507;52.754;13.040;2024-03-17T04:58:26;101597.97;;;2.12;100.00
20696;BME280;10507;52.754;13.040;2024-03-17T05:00:53;101596.22;;;2.11;100.00
20696;BME280;10507;52.754;13.040;2024-03-17T05:03:20;101601.47;;;2.06;100.00
20696;BME280;10507;52.754;13.040;2024-03-17T05:05:46;101603.25;;;2.02;100.00
20696;BME280;10507;52.754;13.040;2024-03-17T05:08:16;101607.66;;;2.02;100.00
20696;BME280;10507;52.754;13.040;2024-03-17T05:10:42;101609.38;;;2.01;100.00
20696;BME280;10507;52.754;13.040;2024-03-17T05:13:11;101609.41;;;1.95;100.00
20696;BME280;10507;52.754;13.040;2024-03-17T05:15:37;101610.25;;;1.94;100.00
20696;BME280;10507;52.754;13.040;2024-03-17T05:18:05;101609.38;;;1.94;100.00
20696;BME280;10507;52.754;13.040;2024-03-17T05:20:34;101613.78;;;1.96;100.00
20696;BME280;10507;52.754;13.040;2024-03-17T05:23:00;101615.50;;;1.97;100.00
20696;BME280;10507;52.754;13.040;2024-03-17T05:25:27;101614.66;;;1.97;100.00
20696;BME280;10507;52.754;13.040;2024-03-17T05:27:55;101617.28;;;1.98;100.00
20696;BME280;10507;52.754;13.040;2024-03-17T05:30:23;101611.13;;;1.96;100.00
20696;BME280;10507;52.754;13.040;2024-03-17T05:32:48;101619.03;;;2.01;100.00
20696;BME280;10507;52.754;13.040;2024-03-17T05:35:15;101625.19;;;1.98;100.00
20696;BME280;10507;52.754;13.040;2024-03-17T05:37:42;101628.72;;;2.02;100.00
20696;BME280;10507;52.754;13.040;2024-03-17T05:40:10;101624.31;;;2.05;100.00
20696;BME280;10507;52.754;13.040;2024-03-17T05:42:41;101628.72;;;2.02;100.00
20696;BME280;10507;52.754;13.040;2024-03-17T05:45:09;101636.63;;;2.06;100.00
20696;BME280;10507;52.754;13.040;2024-03-17T05:47:37;101628.72;;;2.10;100.00
20696;BME280;10507;52.754;13.040;2024-03-17T05:50:07;101633.09;;;2.14;100.00
20696;BME280;10507;52.754;13.040;2024-03-17T05:52:34;101638.38;;;2.14;100.00
20696;BME280;10507;52.754;13.040;2024-03-17T05:55:01;101641.88;;;2.22;100.00
20696;BME280;10507;52.754;13.040;2024-03-17T05:57:28;101645.38;;;2.33;100.00
20696;BME280;10507;52.754;13.040;2024-03-17T05:59:54;101659.44;;;2.66;100.00
20696;BME280;10507;52.754;13.040;2024-03-17T06:02:21;101655.91;;;2.91;100.00
20696;BME280;10507;52.754;13.040;2024-03-17T06:04:49;101643.47;;;3.18;100.00
20696;BME280;10507;52.754;13.040;2024-03-17T06:07:17;101637.28;;;3.31;100.00
20696;BME280;10507;52.754;13.040;2024-03-17T06:09:44;101613.53;;;3.35;100.00
20696;BME280;10507;52.754;13.040;2024-03-17T06:12:12;101610.84;;;3.36;100.00
20696;BME280;10507;52.754;13.040;2024-03-17T06:14:39;101602.94;;;3.38;100.00
20696;BME280;10507;52.754;13.040;2024-03-17T06:17:06;101592.31;;;3.53;100.00
20696;BME280;10507;52.754;13.040;2024-03-17T06:19:33;101581.84;;;3.39;100.00
20696;BME280;10507;52.754;13.040;2024-03-17T06:22:01;101601.91;;;3.68;99.79
20696;BME280;10507;52.754;13.040;2024-03-17T06:24:28;101581.59;;;3.79;99.78
20696;BME280;10507;52.754;13.040;2024-03-17T06:26:55;101579.69;;;3.98;98.81
20696;BME280;10507;52.754;13.040;2024-03-17T06:29:22;101576.09;;;4.08;98.61
20696;BME280;10507;52.754;13.040;2024-03-17T06:31:48;101564.59;;;4.11;98.11
20696;BME280;10507;52.754;13.040;2024-03-17T06:34:15;101561.88;;;4.19;97.09
20696;BME280;10507;52.754;13.040;2024-03-17T06:36:43;101554.66;;;4.37;96.57
20696;BME280;10507;52.754;13.040;2024-03-17T06:39:11;101540.69;;;4.25;96.13
20696;BME280;10507;52.754;13.040;2024-03-17T06:41:41;101561.75;;;4.34;96.59
20696;BME280;10507;52.754;13.040;2024-03-17T06:44:08;101559.00;;;4.42;96.40
20696;BME280;10507;52.754;13.040;2024-03-17T06:46:35;101557.38;;;4.33;95.86
20696;BME280;10507;52.754;13.040;2024-03-17T06:49:01;101573.13;;;4.42;95.92
20696;BME280;10507;52.754;13.040;2024-03-17T06:51:28;101570.53;;;4.34;96.31
20696;BME280;10507;52.754;13.040;2024-03-17T06:53:55;101590.59;;;4.60;96.06
20696;BME280;10507;52.754;13.040;2024-03-17T06:56:23;101586.00;;;4.74;95.68
20696;BME280;10507;52.754;13.040;2024-03-17T06:58:50;101576.31;;;4.75;95.41
20696;BME280;10507;52.754;13.040;2024-03-17T07:01:17;101583.25;;;4.87;94.97
20696;BME280;10507;52.754;13.040;2024-03-17T07:03:45;101554.09;;;4.88;94.40
20696;BME280;10507;52.754;13.040;2024-03-17T07:06:11;101595.19;;;5.20;94.35
20696;BME280;10507;52.754;13.040;2024-03-17T07:08:38;101581.19;;;5.74;93.32
20696;BME280;10507;52.754;13.040;2024-03-17T07:11:06;101515.69;;;5.83;91.84
20696;BME280;10507;52.754;13.040;2024-03-17T07:13:35;101488.75;;;6.11;91.26
20696;BME280;10507;52.754;13.040;2024-03-17T07:16:04;101501.84;;;6.65;89.81
20696;BME280;10507;52.754;13.040;2024-03-17T07:18:33;101438.16;;;6.67;88.35
20696;BME280;10507;52.754;13.040;2024-03-17T07:21:01;101398.94;;;6.80;87.02
20696;BME280;10507;52.754;13.040;2024-03-17T07:23:29;101353.16;;;6.70;86.73
20696;BME280;10507;52.754;13.040;2024-03-17T07:25:59;101326.16;;;6.11;87.09
20696;BME280;10507;52.754;13.040;2024-03-17T07:28:26;101421.13;;;6.35;87.88
20696;BME280;10507;52.754;13.040;2024-03-17T07:30:56;101400.88;;;6.30;87.63
20696;BME280;10507;52.754;13.040;2024-03-17T07:33:24;101393.94;;;6.24;87.28
20696;BME280;10507;52.754;13.040;2024-03-17T07:35:52;101416.19;;;6.17;87.89
20696;BME280;10507;52.754;13.040;2024-03-17T07:38:20;101409.31;;;6.05;87.81
20696;BME280;10507;52.754;13.040;2024-03-17T07:40:58;101444.22;;;6.29;87.85
20696;BME280;10507;52.754;13.040;2024-03-17T07:43:25;101417.91;;;6.19;87.46
20696;BME280;10507;52.754;13.040;2024-03-17T07:46:01;101408.25;;;6.15;87.45
20696;BME280;10507;52.754;13.040;2024-03-17T07:48:29;101433.72;;;6.24;87.50
20696;BME280;10507;52.754;13.040;2024-03-17T07:50:57;101418.59;;;6.28;87.12
20696;BME280;10507;52.754;13.040;2024-03-17T07:53:26;101434.41;;;6.34;87.41
20696;BME280;10507;52.754;13.040;2024-03-17T07:55:57;101454.72;;;6.77;87.11
20696;BME280;10507;52.754;13.040;2024-03-17T07:58:25;101348.94;;;6.61;85.33
20696;BME280;10507;52.754;13.040;2024-03-17T08:00:52;101415.84;;;7.15;85.47
20696;BME280;10507;52.754;13.040;2024-03-17T08:03:20;101360.16;;;7.47;83.55
20696;BME280;10507;52.754;13.040;2024-03-17T08:05:50;101325.53;;;7.83;82.82
20696;BME280;10507;52.754;13.040;2024-03-17T08:08:18;101308.72;;;8.14;81.12
20696;BME280;10507;52.754;13.040;2024-03-17T08:10:45;101224.84;;;8.30;80.08
20696;BME280;10507;52.754;13.040;2024-03-17T08:13:13;101242.97;;;8.47;79.89
20696;BME280;10507;52.754;13.040;2024-03-17T08:15:41;101231.13;;;8.58;78.63
20696;BME280;10507;52.754;13.040;2024-03-17T08:18:08;101121.09;;;8.30;77.90
20696;BME280;10507;52.754;13.040;2024-03-17T08:20:38;101162.97;;;8.25;78.28
20696;BME280;10507;52.754;13.040;2024-03-17T08:23:05;101164.88;;;8.20;78.83
20696;BME280;10507;52.754;13.040;2024-03-17T08:25:33;101170.75;;;8.03;78.50
20696;BME280;10507;52.754;13.040;2024-03-17T08:28:05;101163.81;;;7.98;79.18
20696;BME280;10507;52.754;13.040;2024-03-17T08:30:32;101166.13;;;8.08;78.48
20696;BME280;10507;52.754;13.040;2024-03-17T08:32:59;101121.41;;;8.21;77.87
20696;BME280;10507;52.754;13.040;2024-03-17T08:35:26;101044.47;;;8.15;77.19
20696;BME280;10507;52.754;13.040;2024-03-17T08:37:54;101106.63;;;8.12;77.07
20696;BME280;10507;52.754;13.040;2024-03-17T08:40:21;100989.75;;;7.81;76.75
20696;BME280;10507;52.754;13.040;2024-03-17T08:42:50;101041.19;;;7.80;76.58
20696;BME280;10507;52.754;13.040;2024-03-17T08:45:17;100987.28;;;7.20;77.98
20696;BME280;10507;52.754;13.040;2024-03-17T08:47:44;101083.34;;;7.03;78.74
20696;BME280;10507;52.754;13.040;2024-03-17T08:50:11;101026.72;;;6.73;78.22
20696;BME280;10507;52.754;13.040;2024-03-17T08:52:38;101072.19;;;6.59;78.71
20696;BME280;10507;52.754;13.040;2024-03-17T08:55:08;101145.53;;;6.95;78.57
20696;BME280;10507;52.754;13.040;2024-03-17T08:57:39;101157.28;;;7.19;78.52
20696;BME280;10507;52.754;13.040;2024-03-17T09:00:07;101041.63;;;6.77;78.39
20696;BME280;10507;52.754;13.040;2024-03-17T09:02:34;101102.06;;;6.99;77.74
20696;BME280;10507;52.754;13.040;2024-03-17T09:05:01;101169.44;;;7.26;78.87
20696;BME280;10507;52.754;13.040;2024-03-17T09:07:29;101052.94;;;7.15;77.10
20696;BME280;10507;52.754;13.040;2024-03-17T09:09:56;100969.03;;;7.08;76.39
20696;BME280;10507;52.754;13.040;2024-03-17T09:12:26;101004.50;;;7.35;75.69
20696;BME280;10507;52.754;13.040;2024-03-17T09:14:55;101096.41;;;7.70;76.37
20696;BME280;10507;52.754;13.040;2024-03-17T09:17:21;101015.13;;;7.65;75.18
20696;BME280;10507;52.754;13.040;2024-03-17T09:19:48;100993.50;;;7.47;75.57
20696;BME280;10507;52.754;13.040;2024-03-17T09:22:19;101036.31;;;7.38;76.18
20696;BME280;10507;52.754;13.040;2024-03-17T09:24:47;101080.78;;;7.60;75.73
20696;BME280;10507;52.754;13.040;2024-03-17T09:27:14;101178.13;;;8.22;76.55
20696;BME280;10507;52.754;13.040;2024-03-17T09:29:47;101000.69;;;8.25;74.39
20696;BME280;10507;52.754;13.040;2024-03-17T09:32:13;100881.00;;;8.25;72.43
20696;BME280;10507;52.754;13.040;2024-03-17T09:34:43;100858.84;;;8.00;73.18
20696;BME280;10507;52.754;13.040;2024-03-17T09:37:09;100850.03;;;7.74;72.82
20696;BME280;10507;52.754;13.040;2024-03-17T09:39:36;100866.38;;;7.62;73.71
20696;BME280;10507;52.754;13.040;2024-03-17T09:42:05;100947.53;;;7.45;74.07
20696;BME280;10507;52.754;13.040;2024-03-17T09:44:33;100982.03;;;7.47;74.93
20696;BME280;10507;52.754;13.040;2024-03-17T09:47:04;101028.00;;;7.49;74.84
20696;BME280;10507;52.754;13.040;2024-03-17T09:49:34;101049.34;;;7.46;75.52
20696;BME280;10507;52.754;13.040;2024-03-17T09:52:01;101104.63;;;7.63;76.17
20696;BME280;10507;52.754;13.040;2024-03-17T09:54:30;101118.00;;;7.89;75.99
20696;BME280;10507;52.754;13.040;2024-03-17T09:56:56;101061.94;;;7.96;74.93
20696;BME280;10507;52.754;13.040;2024-03-17T09:59:24;100948.59;;;7.93;73.50
20696;BME280;10507;52.754;13.040;2024-03-17T10:01:51;100926.91;;;8.05;73.58
20696;BME280;10507;52.754;13.040;2024-03-17T10:04:31;100866.56;;;8.07;71.53
20696;BME280;10507;52.754;13.040;2024-03-17T10:06:58;100928.31;;;8.16;72.56
20696;BME280;10507;52.754;13.040;2024-03-17T10:09:25;100877.34;;;8.28;72.41
20696;BME280;10507;52.754;13.040;2024-03-17T10:11:54;100909.91;;;8.35;72.58
20696;BME280;10507;52.754;13.040;2024-03-17T10:14:21;100860.06;;;8.40;71.92
20696;BME280;10507;52.754;13.040;2024-03-17T10:16:47;100815.31;;;8.27;71.47
20696;BME280;10507;52.754;13.040;2024-03-17T10:19:15;100899.28;;;8.58;70.70
20696;BME280;10507;52.754;13.040;2024-03-17T10:21:45;100932.16;;;8.81;70.84
20696;BME280;10507;52.754;13.040;2024-03-17T10:24:18;100866.31;;;8.86;69.69
20696;BME280;10507;52.754;13.040;2024-03-17T10:26:47;100895.06;;;9.22;69.15
20696;BME280;10507;52.754;13.040;2024-03-17T10:29:23;100892.84;;;9.33;69.03
20696;BME280;10507;52.754;13.040;2024-03-17T10:31:52;100818.28;;;9.52;68.47
20696;BME280;10507;52.754;13.040;2024-03-17T10:34:20;100807.78;;;9.49;68.29
20696;BME280;10507;52.754;13.040;2024-03-17T10:36:51;100853.34;;;9.84;68.04
20696;BME280;10507;52.754;13.040;2024-03-17T10:39:25;100809.16;;;9.98;67.25
20696;BME280;10507;52.754;13.040;2024-03-17T10:41:56;100824.28;;;9.98;66.96
20696;BME280;10507;52.754;13.040;2024-03-17T10:44:25;100792.22;;;9.79;67.40
20696;BME280;10507;52.754;13.040;2024-03-17T10:46:53;100811.97;;;9.95;67.36
20696;BME280;10507;52.754;13.040;2024-03-17T10:49:21;100523.75;;;9.24;65.89
20696;BME280;10507;52.754;13.040;2024-03-17T10:51:53;100684.25;;;9.29;66.05
20696;BME280;10507;52.754;13.040;2024-03-17T10:54:24;100760.09;;;9.62;66.48
20696;BME280;10507;52.754;13.040;2024-03-17T10:56:54;100786.41;;;9.90;66.69
20696;BME280;10507;52.754;13.040;2024-03-17T10:59:28;100624.47;;;9.55;65.94
20696;BME280;10507;52.754;13.040;2024-03-17T11:02:02;100773.16;;;9.88;66.44
20696;BME280;10507;52.754;13.040;2024-03-17T11:04:29;100666.81;;;9.62;65.88
20696;BME280;10507;52.754;13.040;2024-03-17T11:06:58;100674.09;;;9.58;66.05
20696;BME280;10507;52.754;13.040;2024-03-17T11:09:26;100670.84;;;9.70;65.63
20696;BME280;10507;52.754;13.040;2024-03-17T11:11:53;100592.84;;;9.67;64.85
20696;BME280;10507;52.754;13.040;2024-03-17T11:14:20;100594.41;;;9.52;65.17
20696;BME280;10507;52.754;13.040;2024-03-17T11:16:47;100768.00;;;9.44;67.40
20696;BME280;10507;52.754;13.040;2024-03-17T11:19:15;100718.56;;;9.16;67.75
20696;BME280;10507;52.754;13.040;2024-03-17T11:21:41;100623.34;;;8.81;66.66
20696;BME280;10507;52.754;13.040;2024-03-17T11:24:19;100795.03;;;9.35;67.92
20696;BME280;10507;52.754;13.040;2024-03-17T11:26:46;100681.44;;;9.32;66.45
20696;BME280;10507;52.754;13.040;2024-03-17T11:29:26;100633.72;;;9.07;66.60
20696;BME280;10507;52.754;13.040;2024-03-17T11:31:53;100748.06;;;9.12;67.61
20696;BME280;10507;52.754;13.040;2024-03-17T11:34:35;100797.97;;;9.49;67.30
20696;BME280;10507;52.754;13.040;2024-03-17T11:37:03;100747.59;;;9.64;66.19
20696;BME280;10507;52.754;13.040;2024-03-17T11:39:52;100656.09;;;9.63;65.59
20696;BME280;10507;52.754;13.040;2024-03-17T11:42:21;100556.59;;;9.25;65.28
20696;BME280;10507;52.754;13.040;2024-03-17T11:45:02;100567.56;;;8.98;65.41
20696;BME280;10507;52.754;13.040;2024-03-17T11:47:39;100608.25;;;8.81;66.71
20696;BME280;10507;52.754;13.040;2024-03-17T11:50:08;100689.44;;;8.91;66.33
20696;BME280;10507;52.754;13.040;2024-03-17T11:52:36;100677.47;;;8.81;67.03
20696;BME280;10507;52.754;13.040;2024-03-17T11:55:04;100835.41;;;9.04;68.38
20696;BME280;10507;52.754;13.040;2024-03-17T11:57:30;100832.34;;;9.35;67.80
20696;BME280;10507;52.754;13.040;2024-03-17T11:59:57;100694.16;;;9.26;66.30
20696;BME280;10507;52.754;13.040;2024-03-17T12:02:24;100723.56;;;9.24;66.32
20696;BME280;10507;52.754;13.040;2024-03-17T12:04:51;100759.19;;;9.42;66.29
20696;BME280;10507;52.754;13.040;2024-03-17T12:07:19;100733.41;;;9.43;66.31
20696;BME280;10507;52.754;13.040;2024-03-17T12:09:49;100757.59;;;9.58;66.03
20696;BME280;10507;52.754;13.040;2024-03-17T12:12:18;100693.19;;;9.28;66.56
20696;BME280;10507;52.754;13.040;2024-03-17T12:14:46;100731.34;;;9.29;66.33
20696;BME280;10507;52.754;13.040;2024-03-17T12:17:14;100626.53;;;9.09;65.90
20696;BME280;10507;52.754;13.040;2024-03-17T12:19:44;100646.78;;;9.13;65.78
20696;BME280;10507;52.754;13.040;2024-03-17T12:22:16;100685.00;;;9.33;65.78
20696;BME280;10507;52.754;13.040;2024-03-17T12:24:44;100639.19;;;9.25;65.25
20696;BME280;10507;52.754;13.040;2024-03-17T12:27:18;100683.50;;;9.26;66.27
20696;BME280;10507;52.754;13.040;2024-03-17T12:29:46;100713.03;;;9.42;65.96
20696;BME280;10507;52.754;13.040;2024-03-17T12:32:14;100619.56;;;9.46;64.69
20696;BME280;10507;52.754;13.040;2024-03-17T12:34:43;100509.28;;;9.30;64.04
20696;BME280;10507;52.754;13.040;2024-03-17T12:37:15;100474.81;;;9.27;63.51
20696;BME280;10507;52.754;13.040;2024-03-17T12:39:43;100463.75;;;9.34;62.97
20696;BME280;10507;52.754;13.040;2024-03-17T12:42:10;100441.19;;;9.24;62.77
20696;BME280;10507;52.754;13.040;2024-03-17T12:44:40;100493.22;;;9.31;63.04
20696;BME280;10507;52.754;13.040;2024-03-17T12:47:15;100550.03;;;9.32;63.70
20696;BME280;10507;52.754;13.040;2024-03-17T12:49:45;100580.41;;;9.28;64.36
20696;BME280;10507;52.754;13.040;2024-03-17T12:52:17;100599.16;;;9.45;64.12